createdAt,value
2022-11-13T00:00:02.267Z,87.1
2022-11-13T00:15:02.684Z,87.3
2022-11-13T00:30:03.184Z,87.4
2022-11-13T00:45:02.581Z,87.6
2022-11-13T01:00:03.179Z,87.7
2022-11-13T01:15:02.436Z,87.9
2022-11-13T01:30:02.905Z,88.0
2022-11-13T01:45:02.358Z,88.2
2022-11-13T02:00:02.766Z,88.5
2022-11-13T02:15:03.209Z,88.7
2022-11-13T02:30:02.638Z,88.8
2022-11-13T02:45:03.197Z,88.9
2022-11-13T03:00:02.526Z,88.9
2022-11-13T03:15:03.134Z,89.0
2022-11-13T03:30:02.393Z,89.3
2022-11-13T03:45:02.834Z,89.5
2022-11-13T04:00:03.291Z,89.5
2022-11-13T04:15:02.716Z,89.7
2022-11-13T04:30:03.227Z,89.7
2022-11-13T04:45:02.593Z,89.7
2022-11-13T05:00:03.224Z,89.7
2022-11-13T05:15:02.525Z,89.8
2022-11-13T05:30:02.907Z,89.7
2022-11-13T05:45:02.342Z,89.8
2022-11-13T06:00:02.765Z,89.8
2022-11-13T06:15:03.243Z,89.9
2022-11-13T06:30:02.679Z,90.0
2022-11-13T06:45:03.260Z,90.1
2022-11-13T07:00:02.526Z,90.4
2022-11-13T07:15:02.987Z,90.7
2022-11-13T07:30:04.091Z,90.7
2022-11-13T07:45:02.844Z,90.7
2022-11-13T08:00:02.285Z,90.8
2022-11-13T08:15:02.734Z,91.1
2022-11-13T08:30:03.274Z,91.6
2022-11-13T08:45:02.564Z,91.9
2022-11-13T09:00:03.013Z,91.9
2022-11-13T09:15:02.456Z,91.1
2022-11-13T09:30:02.884Z,86.2
2022-11-13T09:45:02.332Z,82.7
2022-11-13T10:00:02.750Z,81.6
2022-11-13T10:15:03.303Z,83.6
2022-11-13T10:30:02.664Z,84.0
2022-11-13T10:45:05.890Z,82.1
2022-11-13T11:15:02.966Z,75.6
2022-11-13T11:30:02.412Z,63.7
2022-11-13T11:45:02.820Z,58.6
2022-11-13T12:00:03.313Z,65.2
2022-11-13T12:15:02.683Z,54.1
2022-11-13T12:30:03.332Z,47.0
2022-11-13T12:45:02.575Z,42.5
2022-11-13T13:00:03.021Z,46.4
2022-11-13T13:15:02.443Z,54.3
2022-11-13T13:30:02.893Z,56.8
2022-11-13T13:45:02.346Z,59.5
2022-11-13T14:00:02.749Z,62.2
2022-11-13T14:15:03.357Z,65.0
2022-11-13T14:30:02.599Z,66.6
2022-11-13T14:45:03.082Z,68.2
2022-11-13T15:00:02.512Z,70.5
2022-11-13T15:15:02.938Z,71.8
2022-11-13T15:30:02.403Z,73.3
2022-11-13T15:45:02.801Z,75.0
2022-11-13T16:00:03.383Z,77.2
2022-11-13T16:15:02.684Z,79.0
2022-11-13T16:30:06.873Z,80.8
2022-11-13T16:45:02.526Z,82.9
2022-11-13T17:00:02.995Z,85.2
2022-11-13T17:15:02.434Z,87.4
2022-11-13T17:30:02.868Z,88.6
2022-11-13T17:45:02.392Z,90.4
2022-11-13T18:00:02.741Z,91.9
2022-11-13T18:15:03.408Z,92.8
2022-11-13T18:30:02.593Z,93.1
2022-11-13T18:45:05.876Z,93.6
2022-11-13T19:00:02.486Z,93.8
2022-11-13T19:15:02.922Z,94.1
2022-11-13T19:30:02.415Z,94.2
2022-11-13T19:45:02.800Z,94.4
2022-11-13T20:00:03.445Z,94.6
2022-11-13T20:15:02.684Z,94.7
2022-11-13T20:30:03.137Z,94.8
2022-11-13T20:45:02.566Z,94.8
2022-11-13T21:00:02.968Z,94.9
2022-11-13T21:15:02.432Z,95.0
2022-11-13T21:30:02.860Z,95.1
2022-11-13T21:45:02.448Z,95.0
2022-11-13T22:00:02.738Z,95.1
2022-11-13T22:15:03.181Z,95.2
2022-11-13T22:30:02.625Z,95.2
2022-11-13T22:45:10.803Z,95.4
2022-11-13T23:00:02.463Z,95.5
2022-11-13T23:15:02.898Z,95.7
2022-11-13T23:30:02.449Z,95.6
2022-11-13T23:45:02.810Z,95.7
